Fernandina, Florida
Current Conditions -  °F | °C
As of 10:35 PM on Saturday 22 Nov 2014 (Local Time) from KFHB Reporting Station
Overcast Overcast  
Wind Chill: 72°   Ceiling: 4900
Heat Index: 72°   Visibility: 10mi
Dew Point: 64°   Wind: 8mph
Humidity: 78%   Direction: 100°E
Pressure: 30.17"   Gusts: NA
Location:  30.6697°N, 81.4629°W
Report Text: KFHB 230335Z AUTO 10007KT 10SM SCT042 BKN049 OVC060 22/18 A3017 RMK AO1
Loading
Personal Weather Stations






























Interactive Weather Map New forecast layout! Learn more

10-Day Weather Forecast

Advertisements
Track Severe Weather on mobile